createdAt,value
2022-09-28T00:00:40.386Z,94389.50
2022-09-28T00:03:07.782Z,94389.31
2022-09-28T00:05:35.507Z,94380.88
2022-09-28T00:08:02.565Z,94387.53
2022-09-28T00:10:29.764Z,94382.53
2022-09-28T00:12:59.402Z,94377.25
2022-09-28T00:15:26.528Z,94371.97
2022-09-28T00:17:53.589Z,94360.59
2022-09-28T00:20:20.723Z,94360.59
2022-09-28T00:22:47.767Z,94354.53
2022-09-28T00:25:15.444Z,94340.00
2022-09-28T00:27:42.524Z,94338.16
2022-09-28T00:30:11.505Z,94333.13
2022-09-28T00:32:38.549Z,94327.06
2022-09-28T00:35:07.029Z,94332.34
2022-09-28T00:37:34.110Z,94321.78
2022-09-28T00:40:02.027Z,94320.44
2022-09-28T00:42:29.197Z,94326.00
2022-09-28T00:44:57.548Z,94321.78
2022-09-28T00:47:46.808Z,94304.56
2022-09-28T00:50:22.588Z,94305.38
2022-09-28T00:52:55.542Z,94300.09
2022-09-28T00:55:31.893Z,94299.31
2022-09-28T00:58:03.877Z,94292.97
2022-09-28T01:00:31.090Z,94294.00
2022-09-28T01:02:59.669Z,94294.28
2022-09-28T01:05:27.908Z,94292.72
2022-09-28T01:07:57.608Z,94288.97
2022-09-28T01:10:25.229Z,94293.47
2022-09-28T01:12:52.287Z,94289.25
2022-09-28T01:15:21.649Z,94282.91
2022-09-28T01:18:08.469Z,94288.19
2022-09-28T01:20:59.808Z,94283.69
2022-09-28T01:24:00.404Z,94276.56
2022-09-28T01:26:50.925Z,94275.75
2022-09-28T01:29:31.645Z,94262.56
2022-09-28T01:32:08.025Z,94267.59
2022-09-28T01:34:45.944Z,94256.22
2022-09-28T01:37:20.668Z,94261.50
2022-09-28T01:39:51.925Z,94243.28
2022-09-28T01:42:27.384Z,94249.09
2022-09-28T01:45:03.684Z,94246.47
2022-09-28T01:47:38.622Z,94238.50
2022-09-28T01:50:12.902Z,94239.06
2022-09-28T01:52:50.125Z,94237.72
2022-09-28T01:55:28.186Z,94238.78
2022-09-28T01:58:04.905Z,94231.38
2022-09-28T02:00:34.940Z,94231.16
2022-09-28T02:03:10.348Z,94227.16
2022-09-28T02:05:40.649Z,94220.81
2022-09-28T02:08:13.471Z,94220.53
2022-09-28T02:10:48.243Z,94216.06
2022-09-28T02:13:22.404Z,94211.84
2022-09-28T02:15:53.743Z,94222.13
2022-09-28T02:18:20.844Z,94202.63
2022-09-28T02:20:57.066Z,94202.34
2022-09-28T02:23:28.644Z,94200.47
2022-09-28T02:26:04.125Z,94201.81
2022-09-28T02:28:32.945Z,94198.91
2022-09-28T02:31:01.463Z,94189.13
2022-09-28T02:33:35.064Z,94188.06
2022-09-28T02:36:03.205Z,94193.09
2022-09-28T02:38:30.687Z,94181.22
2022-09-28T02:41:05.605Z,94181.75
2022-09-28T02:43:52.644Z,94168.03
2022-09-28T02:46:30.542Z,94169.09
2022-09-28T02:49:22.294Z,94167.50
2022-09-28T02:52:06.103Z,94170.66
2022-09-28T02:54:58.844Z,94156.94
2022-09-28T02:57:40.024Z,94160.63
2022-09-28T03:00:15.545Z,94167.50
2022-09-28T03:02:59.312Z,94159.84
2022-09-28T03:05:37.424Z,94156.38
2022-09-28T03:08:12.985Z,94157.19
2022-09-28T03:10:47.465Z,94144.00
2022-09-28T03:13:16.429Z,94138.72
2022-09-28T03:15:48.604Z,94148.25
2022-09-28T03:18:16.764Z,94145.06
2022-09-28T03:20:43.843Z,94137.41
2022-09-28T03:23:26.137Z,94140.56
2022-09-28T03:25:53.332Z,94130.00
2022-09-28T03:28:20.405Z,94125.25
2022-09-28T03:30:49.044Z,94127.66
2022-09-28T03:33:16.364Z,94119.72
2022-09-28T03:35:46.822Z,94132.41
2022-09-28T03:38:14.143Z,94122.09
2022-09-28T03:40:41.195Z,94120.78
2022-09-28T03:43:08.445Z,94126.56
2022-09-28T03:45:35.518Z,94103.34
2022-09-28T03:48:04.155Z,94105.47
2022-09-28T03:50:31.204Z,94097.28
2022-09-28T03:53:02.844Z,94091.47
2022-09-28T03:55:29.906Z,94083.53
2022-09-28T03:57:56.922Z,94079.31
2022-09-28T04:00:23.963Z,94088.28
2022-09-28T04:02:51.030Z,94076.13
2022-09-28T04:05:19.502Z,94083.53
2022-09-28T04:07:46.527Z,94068.22
2022-09-28T04:10:13.767Z,94066.63
2022-09-28T04:12:40.805Z,94067.69
2022-09-28T04:15:08.586Z,94064.53
2022-09-28T04:17:39.972Z,94064.81
2022-09-28T04:20:08.064Z,94057.66
2022-09-28T04:22:36.596Z,94058.72
2022-09-28T04:25:03.944Z,94055.31
2022-09-28T04:27:30.984Z,94055.53
2022-09-28T04:29:58.024Z,94048.19
2022-09-28T04:32:25.125Z,94048.69
2022-09-28T04:34:52.204Z,94049.75
2022-09-28T04:37:19.285Z,94048.94
2022-09-28T04:39:48.696Z,94040.22
2022-09-28T04:42:15.844Z,94035.50
2022-09-28T04:44:43.247Z,94038.66
2022-09-28T04:47:10.286Z,94023.88
2022-09-28T04:49:37.328Z,94023.88
2022-09-28T04:52:05.046Z,94018.06
2022-09-28T04:54:32.044Z,94019.38
2022-09-28T04:57:00.606Z,94018.84
2022-09-28T04:59:27.744Z,94016.75
2022-09-28T05:01:54.894Z,94014.09
2022-09-28T05:04:25.779Z,94005.91
2022-09-28T05:06:53.286Z,94006.44
2022-09-28T05:09:20.343Z,94000.09
2022-09-28T05:11:49.926Z,93998.28
2022-09-28T05:14:18.446Z,93992.25
2022-09-28T05:16:45.880Z,94005.69
2022-09-28T05:19:13.191Z,93993.03
2022-09-28T05:21:43.547Z,93987.22
2022-09-28T05:24:11.016Z,93983.25
2022-09-28T05:26:38.346Z,93969.00
2022-09-28T05:29:05.487Z,93969.09
2022-09-28T05:31:33.915Z,93962.72
2022-09-28T05:34:01.043Z,93968.44
2022-09-28T05:36:28.163Z,93960.38
2022-09-28T05:38:55.305Z,93949.06
2022-09-28T05:41:22.475Z,93949.56
2022-09-28T05:43:49.524Z,93955.13
2022-09-28T05:46:17.601Z,93967.00
2022-09-28T05:48:46.125Z,93978.31
2022-09-28T05:51:13.183Z,93975.41
2022-09-28T05:53:40.245Z,93970.94
2022-09-28T05:56:07.325Z,93977.53
2022-09-28T05:58:34.476Z,93971.47
2022-09-28T06:01:01.564Z,93971.22
2022-09-28T06:03:28.744Z,93972.25
2022-09-28T06:06:00.146Z,93969.38
2022-09-28T06:08:27.265Z,93958.56
2022-09-28T06:10:54.284Z,93963.31
2022-09-28T06:13:21.306Z,93970.16
2022-09-28T06:15:48.426Z,93975.69
2022-09-28T06:18:15.506Z,93970.69
2022-09-28T06:20:43.266Z,93967.25
2022-09-28T06:23:13.284Z,93962.00
2022-09-28T06:25:40.786Z,93964.38
2022-09-28T06:28:11.101Z,93959.59
2022-09-28T06:30:39.449Z,93964.38
2022-09-28T06:33:08.440Z,93960.66
2022-09-28T06:35:35.826Z,93963.81
2022-09-28T06:38:03.088Z,93962.75
2022-09-28T06:40:32.357Z,93971.22
2022-09-28T06:43:01.046Z,93964.09
2022-09-28T06:45:30.226Z,93975.97
2022-09-28T06:47:59.265Z,93976.50
2022-09-28T06:50:28.205Z,93977.53
2022-09-28T06:52:56.047Z,93978.31
2022-09-28T06:55:23.425Z,93976.97
2022-09-28T06:57:58.745Z,93986.69
2022-09-28T07:00:26.108Z,93992.78
2022-09-28T07:02:53.217Z,93989.63
2022-09-28T07:05:20.625Z,93979.88
2022-09-28T07:07:47.666Z,93990.97
2022-09-28T07:10:14.864Z,93998.34
2022-09-28T07:12:41.927Z,93998.13
2022-09-28T07:15:10.946Z,93998.88
2022-09-28T07:17:52.404Z,93992.00
2022-09-28T07:20:25.111Z,93987.03
2022-09-28T07:22:53.904Z,93997.03
2022-09-28T07:25:21.330Z,93991.22
2022-09-28T07:27:48.507Z,93989.69
2022-09-28T07:30:17.837Z,93988.09
2022-09-28T07:32:45.605Z,93991.25
2022-09-28T07:35:12.666Z,93994.66
2022-09-28T07:37:39.708Z,93987.56
2022-09-28T07:40:09.171Z,93994.09
2022-09-28T07:42:36.524Z,93989.63
2022-09-28T07:45:04.057Z,94000.94
2022-09-28T07:47:35.292Z,93992.97
2022-09-28T07:50:02.647Z,93989.94
2022-09-28T07:52:29.744Z,93985.63
2022-09-28T07:54:56.844Z,93990.34
2022-09-28T07:57:24.626Z,93989.72
2022-09-28T07:59:51.668Z,93996.09
2022-09-28T08:02:18.726Z,93995.97
2022-09-28T08:04:47.326Z,93995.00
2022-09-28T08:07:17.128Z,94001.44
2022-09-28T08:09:46.567Z,93998.56
2022-09-28T08:12:14.266Z,94000.97
2022-09-28T08:14:41.344Z,94001.19
2022-09-28T08:17:08.426Z,93995.16
2022-09-28T08:19:35.686Z,94011.59
2022-09-28T08:22:04.165Z,94004.22
2022-09-28T08:24:31.844Z,94001.28
2022-09-28T08:26:58.865Z,94003.69
2022-09-28T08:29:25.950Z,93999.47
2022-09-28T08:31:53.006Z,94013.31
2022-09-28T08:34:20.027Z,94006.66
2022-09-28T08:36:47.105Z,94011.63
2022-09-28T08:39:15.585Z,94011.63
2022-09-28T08:41:51.131Z,94013.19
2022-09-28T08:44:21.405Z,94016.34
2022-09-28T08:46:53.824Z,94018.78
2022-09-28T08:49:29.307Z,94027.00
2022-09-28T08:52:02.845Z,94026.44
2022-09-28T08:54:40.396Z,94030.38
2022-09-28T08:57:14.188Z,94031.16
2022-09-28T08:59:49.613Z,94028.03
2022-09-28T09:02:22.845Z,94028.81
2022-09-28T09:04:52.645Z,94032.78
2022-09-28T09:07:51.793Z,94026.44
2022-09-28T09:13:40.326Z,94027.47
2022-09-28T09:16:22.734Z,94024.59
2022-09-28T09:18:59.326Z,94036.44
2022-09-28T09:21:39.985Z,94035.59
2022-09-28T09:24:24.564Z,94030.84
2022-09-28T09:27:04.805Z,94024.84
2022-09-28T09:29:55.117Z,94031.94
2022-09-28T09:32:52.608Z,94033.81
2022-09-28T09:35:47.885Z,94036.44
2022-09-28T09:38:37.936Z,94042.28
2022-09-28T09:41:20.898Z,94040.94
2022-09-28T09:44:15.267Z,94021.34
2022-09-28T09:46:51.605Z,94024.00
2022-09-28T09:49:25.105Z,94019.97
2022-09-28T09:52:00.387Z,94016.06
2022-09-28T09:54:35.970Z,94011.53
2022-09-28T09:57:14.348Z,94009.94
2022-09-28T09:59:43.338Z,94010.97
2022-09-28T10:02:23.209Z,94011.25
2022-09-28T10:04:54.970Z,94017.84
2022-09-28T10:07:25.984Z,94026.31
2022-09-28T10:09:58.409Z,94015.22
2022-09-28T10:12:26.608Z,94014.19
2022-09-28T10:14:53.804Z,94015.47
2022-09-28T10:17:22.664Z,94012.56
2022-09-28T10:19:49.739Z,94010.97
2022-09-28T10:22:23.248Z,94002.75
2022-09-28T10:24:54.145Z,94011.50
2022-09-28T10:27:25.997Z,94009.91
2022-09-28T10:29:56.384Z,94008.31
2022-09-28T10:32:27.144Z,94002.53
2022-09-28T10:35:24.066Z,94004.69
2022-09-28T10:37:57.125Z,93997.38
2022-09-28T10:40:34.431Z,93996.25
2022-09-28T10:43:03.747Z,94006.44
2022-09-28T10:45:37.254Z,93993.66
2022-09-28T10:48:18.165Z,94006.19
2022-09-28T10:51:00.083Z,93997.75
2022-09-28T10:53:27.748Z,93993.50
2022-09-28T10:56:01.563Z,93985.81
2022-09-28T10:58:36.444Z,93988.97
2022-09-28T11:01:09.819Z,93980.22
2022-09-28T11:03:51.164Z,93980.63
2022-09-28T11:06:26.145Z,93969.25
2022-09-28T11:08:56.805Z,93967.13
2022-09-28T11:11:24.365Z,93970.84
2022-09-28T11:13:54.506Z,93965.41
2022-09-28T11:16:28.358Z,93961.56
2022-09-28T11:18:59.296Z,93964.66
2022-09-28T11:21:29.986Z,93951.72
2022-09-28T11:24:03.308Z,93973.69
2022-09-28T11:26:38.466Z,93965.47
2022-09-28T11:29:06.892Z,93960.13
2022-09-28T11:31:34.667Z,93955.41
2022-09-28T11:34:13.527Z,93976.25
2022-09-28T11:37:22.546Z,93970.59
2022-09-28T11:40:03.363Z,93973.69
2022-09-28T11:42:47.744Z,93970.16
2022-09-28T11:45:49.809Z,93961.97
2022-09-28T11:48:25.004Z,93952.75
2022-09-28T11:51:00.764Z,93956.16
2022-09-28T11:53:36.945Z,93946.38
2022-09-28T11:56:16.924Z,93944.25
2022-09-28T11:58:51.067Z,93936.28
2022-09-28T12:01:27.364Z,93922.47
2022-09-28T12:04:03.533Z,93924.06
2022-09-28T12:06:41.205Z,93925.88
2022-09-28T12:09:20.753Z,93933.53
2022-09-28T12:11:56.693Z,93932.53
2022-09-28T12:14:29.766Z,93927.75
2022-09-28T12:17:08.043Z,93923.22
2022-09-28T12:19:48.906Z,93931.50
2022-09-28T12:22:25.486Z,93933.84
2022-09-28T12:24:58.764Z,93930.09
2022-09-28T12:27:37.912Z,93926.63
2022-09-28T12:30:14.363Z,93921.78
2022-09-28T12:32:47.411Z,93930.69
2022-09-28T12:35:22.224Z,93934.63
2022-09-28T12:38:22.286Z,93938.19
2022-09-28T12:40:57.320Z,93934.78
2022-09-28T12:44:08.921Z,93919.19
2022-09-28T12:47:06.087Z,93928.75
2022-09-28T12:50:36.238Z,93923.03
2022-09-28T12:52:42.849Z,93919.88
2022-09-28T12:55:33.787Z,93914.34
2022-09-28T12:58:17.965Z,93909.63
2022-09-28T13:01:02.727Z,93919.06
2022-09-28T13:03:57.185Z,93910.03
2022-09-28T13:06:46.340Z,93902.19
2022-09-28T13:09:22.645Z,93902.47
2022-09-28T13:12:05.344Z,93898.41
2022-09-28T13:14:59.586Z,93893.88
2022-09-28T13:17:47.784Z,93898.63
2022-09-28T13:20:36.064Z,93891.31
2022-09-28T13:23:15.708Z,93891.75
2022-09-28T13:25:52.802Z,93893.88
2022-09-28T13:28:27.181Z,93894.09
2022-09-28T13:33:35.781Z,93906.13
2022-09-28T13:36:30.624Z,93914.59
2022-09-28T13:39:06.106Z,93914.00
2022-09-28T13:41:44.772Z,93920.41
2022-09-28T13:44:42.207Z,93919.06
2022-09-28T13:47:38.465Z,93914.00
2022-09-28T13:50:31.068Z,93920.03
2022-09-28T13:53:14.125Z,93921.28
2022-09-28T13:55:56.730Z,93930.25
2022-09-28T13:58:29.564Z,93926.28
2022-09-28T14:01:09.687Z,93923.63
2022-09-28T14:03:58.747Z,93921.94
2022-09-28T14:06:32.508Z,93916.13
2022-09-28T14:09:40.265Z,93910.84
2022-09-28T14:12:44.785Z,93916.34
2022-09-28T14:15:43.753Z,93913.41
2022-09-28T14:18:28.249Z,93908.94
2022-09-28T14:21:38.186Z,93914.78
2022-09-28T14:24:27.787Z,93915.81
2022-09-28T14:27:47.471Z,93915.38
2022-09-28T14:30:26.171Z,93915.84
2022-09-28T14:33:00.285Z,93922.59
2022-09-28T14:35:34.006Z,93928.47
2022-09-28T14:38:06.225Z,93927.59
2022-09-28T14:40:59.116Z,93935.59
2022-09-28T14:43:35.281Z,93931.78
2022-09-28T14:46:27.238Z,93933.56
2022-09-28T14:48:56.930Z,93934.13
2022-09-28T14:52:00.463Z,93934.91
2022-09-28T14:54:30.435Z,93928.84
2022-09-28T14:57:08.371Z,93939.09
2022-09-28T14:59:42.376Z,93925.38
2022-09-28T15:02:19.956Z,93925.38
2022-09-28T15:04:52.291Z,93935.44
2022-09-28T15:07:25.537Z,93935.72
2022-09-28T15:09:55.175Z,93935.69
2022-09-28T15:12:26.623Z,93939.19
2022-09-28T15:14:57.465Z,93933.63
2022-09-28T15:17:29.997Z,93938.56
2022-09-28T15:20:20.374Z,93949.03
2022-09-28T15:22:53.278Z,93959.03
2022-09-28T15:25:22.733Z,93968.22
2022-09-28T15:27:53.495Z,93953.09
2022-09-28T15:30:27.966Z,93964.88
2022-09-28T15:32:57.204Z,93955.47
2022-09-28T15:35:26.684Z,93946.97
2022-09-28T15:37:55.703Z,93955.88
2022-09-28T15:40:34.469Z,93964.09
2022-09-28T15:43:02.003Z,93954.22
2022-09-28T15:45:35.697Z,93958.47
2022-09-28T15:48:19.022Z,93963.47
2022-09-28T15:51:04.262Z,93955.53
2022-09-28T15:53:34.336Z,93955.81
2022-09-28T15:56:06.025Z,93970.84
2022-09-28T15:58:33.198Z,93970.56
2022-09-28T16:01:23.499Z,93967.13
2022-09-28T16:03:50.863Z,93985.63
2022-09-28T16:06:18.183Z,93963.75
2022-09-28T16:08:47.244Z,93968.72
2022-09-28T16:11:20.025Z,93969.75
2022-09-28T16:13:57.210Z,93978.75
2022-09-28T16:16:28.863Z,93974.53
2022-09-28T16:18:59.923Z,93984.03
2022-09-28T16:21:43.423Z,93981.16
2022-09-28T16:24:22.682Z,93992.50
2022-09-28T16:26:58.102Z,93989.88
2022-09-28T16:29:32.444Z,93989.34
2022-09-28T16:32:34.242Z,93987.75
2022-09-28T16:35:27.164Z,93996.72
2022-09-28T16:38:03.445Z,94008.88
2022-09-28T16:40:33.779Z,94024.38
2022-09-28T16:43:05.704Z,94023.28
2022-09-28T16:45:32.828Z,94033.28
2022-09-28T16:48:00.108Z,94039.31
2022-09-28T16:50:27.981Z,94042.31
2022-09-28T16:53:01.923Z,94043.38
2022-09-28T16:55:40.063Z,94052.34
2022-09-28T16:58:09.753Z,94047.06
2022-09-28T17:00:36.911Z,94056.81
2022-09-28T17:03:13.646Z,94052.84
2022-09-28T17:05:40.904Z,94044.94
2022-09-28T17:08:14.072Z,94067.34
2022-09-28T17:11:09.884Z,94071.34
2022-09-28T17:13:35.410Z,94066.22
2022-09-28T17:16:05.652Z,94076.03
2022-09-28T17:18:35.886Z,94074.72
2022-09-28T17:21:05.841Z,94078.19
2022-09-28T17:23:33.289Z,94088.50
2022-09-28T17:26:03.003Z,94086.38
2022-09-28T17:28:33.044Z,94092.75
2022-09-28T17:31:01.715Z,94097.75
2022-09-28T17:33:28.942Z,94099.34
2022-09-28T17:36:01.550Z,94086.13
2022-09-28T17:38:29.023Z,94089.84
2022-09-28T17:40:56.271Z,94095.13
2022-09-28T17:43:23.419Z,94096.19
2022-09-28T17:45:50.845Z,94088.28
2022-09-28T17:48:20.740Z,94087.22
2022-09-28T17:50:47.919Z,94079.84
2022-09-28T17:53:15.461Z,94085.66
2022-09-28T17:55:42.882Z,94087.50
2022-09-28T17:58:16.481Z,94099.63
2022-09-28T18:00:45.548Z,94099.34
2022-09-28T18:03:15.200Z,94103.06
2022-09-28T18:05:44.880Z,94104.66
2022-09-28T18:08:15.640Z,94109.94
2022-09-28T18:10:42.802Z,94109.41
2022-09-28T18:13:10.261Z,94109.66
2022-09-28T18:15:37.419Z,94114.16
2022-09-28T18:18:04.921Z,94111.25
2022-09-28T18:20:35.443Z,94109.41
2022-09-28T18:23:04.863Z,94108.63
2022-09-28T18:25:32.541Z,94106.53
2022-09-28T18:27:59.815Z,94109.97
2022-09-28T18:30:28.034Z,94110.50
2022-09-28T18:32:55.122Z,94102.31
2022-09-28T18:35:23.371Z,94104.16
2022-09-28T18:37:50.659Z,94113.94
2022-09-28T18:40:20.613Z,94107.84
2022-09-28T18:42:50.219Z,94113.91
2022-09-28T18:45:18.640Z,94119.72
2022-09-28T18:47:46.042Z,94114.19
2022-09-28T18:50:13.680Z,94112.59
2022-09-28T18:52:41.673Z,94111.28
2022-09-28T18:55:09.735Z,94118.41
2022-09-28T18:57:39.583Z,94121.03
2022-09-28T19:00:11.201Z,94120.47
2022-09-28T19:02:39.030Z,94121.28
2022-09-28T19:05:08.780Z,94121.78
2022-09-28T19:07:35.921Z,94119.94
2022-09-28T19:10:03.302Z,94122.03
2022-09-28T19:12:30.470Z,94120.44
2022-09-28T19:14:59.102Z,94120.72
2022-09-28T19:17:26.322Z,94118.06
2022-09-28T19:19:53.406Z,94119.63
2022-09-28T19:22:21.242Z,94124.91
2022-09-28T19:24:48.302Z,94116.44
2022-09-28T19:27:15.380Z,94115.38
2022-09-28T19:29:42.540Z,94123.56
2022-09-28T19:32:11.093Z,94119.84
2022-09-28T19:34:38.362Z,94125.94
2022-09-28T19:37:05.402Z,94127.00
2022-09-28T19:39:32.541Z,94125.13
2022-09-28T19:41:59.664Z,94130.41
2022-09-28T19:44:29.921Z,94121.72
2022-09-28T19:46:59.005Z,94119.34
2022-09-28T19:49:28.461Z,94120.41
2022-09-28T19:52:11.967Z,94114.59
2022-09-28T19:54:40.299Z,94116.44
2022-09-28T19:57:07.853Z,94121.19
2022-09-28T19:59:35.360Z,94111.72
2022-09-28T20:02:02.559Z,94115.91
2022-09-28T20:04:31.221Z,94114.34
2022-09-28T20:06:58.281Z,94110.13
2022-09-28T20:09:25.461Z,94112.47
2022-09-28T20:11:52.643Z,94113.00
2022-09-28T20:14:24.605Z,94123.81
2022-09-28T20:16:55.761Z,94119.84
2022-09-28T20:19:22.860Z,94120.66
2022-09-28T20:21:51.502Z,94125.13
2022-09-28T20:24:18.577Z,94123.03
2022-09-28T20:26:46.093Z,94120.94
2022-09-28T20:29:13.611Z,94122.78
2022-09-28T20:31:40.841Z,94125.16
2022-09-28T20:34:07.941Z,94127.78
2022-09-28T20:36:38.672Z,94126.72
2022-09-28T20:39:07.702Z,94116.72
2022-09-28T20:41:34.819Z,94120.16
2022-09-28T20:44:05.715Z,94122.78
2022-09-28T20:46:33.878Z,94107.78
2022-09-28T20:49:01.122Z,94106.97
2022-09-28T20:51:28.352Z,94100.91
2022-09-28T20:53:57.330Z,94101.69
2022-09-28T20:56:28.000Z,94116.72
2022-09-28T20:58:55.470Z,94116.22
2022-09-28T21:01:25.082Z,94115.41
2022-09-28T21:03:54.101Z,94116.22
2022-09-28T21:06:23.601Z,94114.09
2022-09-28T21:08:51.581Z,94128.34
2022-09-28T21:11:21.120Z,94118.34
2022-09-28T21:13:53.581Z,94120.97
2022-09-28T21:16:21.042Z,94114.63
2022-09-28T21:18:48.342Z,94109.38
2022-09-28T21:21:17.648Z,94112.53
2022-09-28T21:23:45.195Z,94103.84
2022-09-28T21:26:14.662Z,94103.31
2022-09-28T21:28:42.542Z,94091.19
2022-09-28T21:31:12.235Z,94094.06
2022-09-28T21:33:39.483Z,94094.06
2022-09-28T21:36:08.460Z,94098.28
2022-09-28T21:38:35.776Z,94099.09
2022-09-28T21:41:03.328Z,94098.28
2022-09-28T21:43:31.556Z,94096.44
2022-09-28T21:45:59.259Z,94104.13
2022-09-28T21:48:29.840Z,94099.63
2022-09-28T21:50:57.561Z,94083.78
2022-09-28T21:53:26.381Z,94088.56
2022-09-28T21:55:56.441Z,94084.84
2022-09-28T21:58:25.999Z,94079.84
2022-09-28T22:00:59.720Z,94072.75
2022-09-28T22:03:28.500Z,94071.16
2022-09-28T22:05:56.220Z,94063.50
2022-09-28T22:08:24.440Z,94071.94
2022-09-28T22:10:57.841Z,94070.91
2022-09-28T22:13:24.941Z,94066.66
2022-09-28T22:15:53.111Z,94066.66
2022-09-28T22:18:20.222Z,94066.13
2022-09-28T22:20:48.760Z,94062.19
2022-09-28T22:23:15.900Z,94073.00
2022-09-28T22:25:42.941Z,94072.47
2022-09-28T22:28:10.020Z,94067.19
2022-09-28T22:30:37.341Z,94078.81
2022-09-28T22:33:04.440Z,94073.53
2022-09-28T22:35:31.500Z,94071.16
2022-09-28T22:38:01.199Z,94069.59
2022-09-28T22:40:28.294Z,94058.50
2022-09-28T22:42:55.382Z,94065.63
2022-09-28T22:45:22.462Z,94064.28
2022-09-28T22:47:49.559Z,94063.00
2022-09-28T22:50:16.723Z,94059.28
2022-09-28T22:52:43.720Z,94054.53
2022-09-28T22:55:12.201Z,94057.47
2022-09-28T22:57:39.200Z,94048.75
2022-09-28T23:00:07.786Z,94051.09
2022-09-28T23:02:34.922Z,94050.84
2022-09-28T23:05:02.061Z,94049.00
2022-09-28T23:07:29.079Z,94045.56
2022-09-28T23:09:56.200Z,94047.44
2022-09-28T23:12:24.679Z,94051.38
2022-09-28T23:14:51.739Z,94056.63
2022-09-28T23:17:19.021Z,94048.63
2022-09-28T23:19:46.061Z,94054.44
2022-09-28T23:22:13.561Z,94044.38
2022-09-28T23:24:40.579Z,94043.50
2022-09-28T23:27:07.664Z,94041.41
2022-09-28T23:29:36.362Z,94035.00
2022-09-28T23:32:03.400Z,94031.78
2022-09-28T23:34:30.479Z,94034.66
2022-09-28T23:36:57.559Z,94033.56
2022-09-28T23:39:24.601Z,94030.63
2022-09-28T23:41:51.680Z,94027.69
2022-09-28T23:44:18.781Z,94028.81
2022-09-28T23:46:47.353Z,94035.13
2022-09-28T23:49:14.511Z,94026.72
2022-09-28T23:51:41.579Z,94028.81
2022-09-28T23:54:08.801Z,94029.59
2022-09-28T23:56:35.899Z,94024.31
2022-09-28T23:59:02.959Z,94028.50
